Time;durP1;ratioP1;P1;durP2;ratioP2;P2;SDS_P1;SDS_P2;PMS_P1;PMS_P2;Temp;Humidity;BMP_temperature;BMP_pressure;BME280_temperature;BME280_humidity;BME280_pressure;Samples;Min_cycle;Max_cycle;Signal;HPM_P1;HPM_P2
2021/03/16 00:10:16;;;;;;;6.45;4.78;;;;;;;19.62;36.65;100385.38;31761719;28;20084;-53
2021/03/16 00:25:18;;;;;;;7.37;5.03;;;;;;;19.52;36.73;100406.50;31744233;28;20039;-57
2021/03/16 00:40:19;;;;;;;7.03;4.28;;;;;;;19.41;36.89;100419.84;31728265;28;20273;-55
2021/03/16 00:55:20;;;;;;;6.60;3.90;;;;;;;19.34;36.97;100442.47;31704508;28;20051;-59
2021/03/16 01:10:22;;;;;;;6.43;4.10;;;;;;;19.24;37.08;100442.47;31745222;28;20661;-58
2021/03/16 01:25:23;;;;;;;6.40;4.22;;;;;;;19.16;37.08;100460.78;31736252;28;20031;-59
2021/03/16 01:40:35;;;;;;;6.35;4.40;;;;;;;19.06;37.36;100481.88;31742415;28;20534;-58
2021/03/16 01:55:36;;;;;;;5.70;4.05;;;;;;;18.97;37.31;100480.06;31757143;28;20362;-59
2021/03/16 02:11:01;;;;;;;6.05;4.10;;;;;;;18.88;37.65;100499.31;31765152;28;20366;-59
2021/03/16 02:26:17;;;;;;;7.78;4.45;;;;;;;18.81;37.70;100525.34;31761698;28;20365;-59
2021/03/16 02:41:18;;;;;;;5.70;3.95;;;;;;;18.75;37.60;100537.19;31746251;28;20064;-60
2021/03/16 02:56:19;;;;;;;5.45;3.45;;;;;;;18.67;37.72;100552.84;31745174;28;20043;-58
2021/03/16 03:11:20;;;;;;;6.13;3.97;;;;;;;18.57;37.68;100578.28;31718904;28;20036;-59
2021/03/16 03:26:25;;;;;;;5.60;3.43;;;;;;;18.53;37.75;100600.56;31736434;28;20046;-59
2021/03/16 03:41:26;;;;;;;4.65;3.25;;;;;;;18.46;38.03;100621.31;31722146;28;20635;-59
2021/03/16 03:56:32;;;;;;;5.27;3.50;;;;;;;18.41;38.11;100641.91;31754319;28;20049;-54
2021/03/16 04:11:33;;;;;;;5.53;3.20;;;;;;;18.35;37.92;100661.69;31752673;28;20323;-56
2021/03/16 04:26:34;;;;;;;4.72;3.25;;;;;;;18.30;38.72;100674.41;31746640;28;20085;-52
2021/03/16 04:41:35;;;;;;;6.23;3.40;;;;;;;18.23;37.97;100690.81;31744262;28;20027;-54
2021/03/16 04:56:36;;;;;;;5.73;2.97;;;;;;;18.18;38.22;100718.34;31741936;28;20308;-56
2021/03/16 05:11:37;;;;;;;3.90;2.57;;;;;;;18.13;38.25;100735.47;31740763;28;20296;-54
2021/03/16 05:26:38;;;;;;;4.73;2.90;;;;;;;18.10;38.24;100759.41;31737966;28;20297;-52
2021/03/16 05:41:40;;;;;;;4.47;2.77;;;;;;;18.04;38.45;100773.03;31738811;28;20269;-51
2021/03/16 05:56:41;;;;;;;4.80;2.60;;;;;;;18.02;38.38;100796.00;31737130;28;20705;-52
2021/03/16 06:11:49;;;;;;;4.20;2.50;;;;;;;17.96;38.28;100821.00;31736498;28;20044;-51
2021/03/16 06:26:50;;;;;;;4.85;2.50;;;;;;;17.93;38.36;100834.38;31736883;28;20461;-54
2021/03/16 06:41:51;;;;;;;4.47;2.55;;;;;;;17.88;38.44;100857.56;31725265;28;20085;-55
2021/03/16 06:56:53;;;;;;;3.53;2.25;;;;;;;17.86;38.49;100880.53;31739957;28;20397;-53
2021/03/16 07:11:57;;;;;;;5.25;2.60;;;;;;;17.05;30.53;100879.66;31736005;27;20058;-56
2021/03/16 07:26:59;;;;;;;5.10;2.75;;;;;;;13.69;35.91;100914.31;31727341;28;20405;-56
2021/03/16 07:42:00;;;;;;;7.28;2.30;;;;;;;12.80;41.25;100940.31;31713844;27;20049;-59
2021/03/16 07:57:03;;;;;;;9.52;2.35;;;;;;;14.85;42.43;100970.81;31714405;27;20039;-57
2021/03/16 08:12:04;;;;;;;6.97;2.63;;;;;;;16.30;39.90;100970.72;31711463;27;20032;-58
2021/03/16 08:27:11;;;;;;;5.80;1.67;;;;;;;17.22;38.31;100989.53;31686473;27;20101;-56
2021/03/16 08:42:16;;;;;;;4.18;1.58;;;;;;;18.01;36.64;101002.94;31715860;28;20028;-57
2021/03/16 08:57:21;;;;;;;5.43;3.10;;;;;;;18.00;34.51;101027.53;31726128;27;20035;-57
2021/03/16 09:12:28;;;;;;;4.63;2.38;;;;;;;18.63;34.63;101030.56;31728379;28;20035;-58
2021/03/16 09:27:29;;;;;;;6.03;2.83;;;;;;;19.17;33.65;101042.94;31697653;28;20032;-58
2021/03/16 09:42:40;;;;;;;4.00;2.57;;;;;;;19.47;33.67;101044.03;31681812;28;20020;-60
2021/03/16 09:57:41;;;;;;;7.53;2.80;;;;;;;19.63;33.31;101047.06;31688211;28;20834;-62
2021/03/16 10:12:59;;;;;;;22.43;17.80;;;;;;;19.59;33.43;101058.81;31691268;28;20036;-61
2021/03/16 10:28:01;;;;;;;7.05;4.25;;;;;;;19.68;33.67;101062.50;31729398;27;20293;-60
2021/03/16 10:43:02;;;;;;;5.88;3.30;;;;;;;19.92;32.44;101057.00;31747769;27;20026;-61
2021/03/16 10:58:03;;;;;;;6.43;3.67;;;;;;;20.00;33.16;101069.56;31734162;27;20039;-61
2021/03/16 11:13:04;;;;;;;5.03;3.00;;;;;;;20.13;34.07;101070.16;31737218;27;20032;-59
2021/03/16 11:28:05;;;;;;;5.32;3.30;;;;;;;20.36;33.86;101075.28;31724103;28;20856;-60
2021/03/16 11:43:06;;;;;;;5.23;3.47;;;;;;;20.36;34.06;101078.75;31750156;27;20022;-61
2021/03/16 11:58:07;;;;;;;6.27;4.00;;;;;;;20.24;33.57;101080.66;31736795;27;20300;-63
2021/03/16 12:13:08;;;;;;;7.83;4.40;;;;;;;20.28;33.12;101068.88;31733472;27;20286;-61
2021/03/16 12:28:09;;;;;;;7.63;4.40;;;;;;;20.18;33.80;101080.34;31725890;27;20293;-62
2021/03/16 12:43:11;;;;;;;8.52;4.25;;;;;;;20.17;34.75;101082.13;31725184;28;20792;-63
2021/03/16 12:58:11;;;;;;;8.57;4.40;;;;;;;20.41;34.23;101088.94;31724598;28;20096;-63
2021/03/16 13:13:13;;;;;;;5.60;4.03;;;;;;;20.62;34.06;101088.94;31691999;28;20030;-62
2021/03/16 13:28:14;;;;;;;7.97;4.30;;;;;;;20.71;34.09;101080.22;31703227;28;20285;-63
2021/03/16 13:43:15;;;;;;;6.13;4.20;;;;;;;20.75;34.56;101089.50;31713575;28;20030;-64
2021/03/16 13:58:16;;;;;;;6.10;3.80;;;;;;;20.75;34.83;101107.19;31699507;28;20297;-63
2021/03/16 14:13:16;;;;;;;5.90;4.30;;;;;;;20.78;34.62;101112.22;31704989;28;20302;-63
2021/03/16 14:28:17;;;;;;;17.03;13.73;;;;;;;20.60;33.49;101119.91;31717375;28;20316;-63
2021/03/16 14:43:19;;;;;;;7.60;4.83;;;;;;;20.71;34.20;101133.03;31725263;28;20288;-64
2021/03/16 14:58:19;;;;;;;9.13;4.93;;;;;;;20.80;33.78;101131.38;31715980;28;20827;-62
2021/03/16 15:13:20;;;;;;;7.47;4.73;;;;;;;20.84;33.96;101128.34;31742780;28;20034;-62
2021/03/16 15:28:21;;;;;;;21.90;16.73;;;;;;;20.58;33.13;101129.78;31718772;28;20296;-63
2021/03/16 15:43:22;;;;;;;9.03;6.83;;;;;;;20.81;34.26;101123.34;31716436;28;20293;-59
2021/03/16 15:58:23;;;;;;;8.23;5.80;;;;;;;20.95;34.30;101122.13;31742274;28;20297;-57
2021/03/16 16:13:24;;;;;;;9.10;6.10;;;;;;;20.97;33.75;101130.75;31711697;28;20289;-58
2021/03/16 16:28:26;;;;;;;8.80;6.33;;;;;;;20.96;33.62;101136.16;31710001;28;20315;-57
2021/03/16 16:43:27;;;;;;;10.50;6.95;;;;;;;20.86;34.09;101149.34;31689356;28;20848;-55
2021/03/16 16:58:28;;;;;;;9.10;6.40;;;;;;;20.91;34.03;101168.28;31684861;28;20039;-63
2021/03/16 17:13:29;;;;;;;9.60;6.30;;;;;;;20.98;33.89;101185.28;31706440;28;20292;-60
2021/03/16 17:28:30;;;;;;;6.13;3.22;;;;;;;20.13;24.32;101203.94;31728287;28;20720;-57
2021/03/16 17:43:30;;;;;;;8.05;5.78;;;;;;;18.02;35.36;101220.28;31698401;28;20088;-59
2021/03/16 17:58:31;;;;;;;9.00;5.90;;;;;;;19.28;34.79;101220.44;31706150;28;20072;-60
2021/03/16 18:13:32;;;;;;;8.77;5.97;;;;;;;19.86;35.18;101231.63;31722083;28;20300;-59
2021/03/16 18:28:33;;;;;;;9.67;5.83;;;;;;;20.13;35.52;101241.69;31700647;28;20035;-58
2021/03/16 18:43:34;;;;;;;7.38;4.32;;;;;;;18.68;32.66;101248.75;31738587;28;20718;-62
2021/03/16 18:58:35;;;;;;;5.80;4.37;;;;;;;19.22;32.95;101261.28;31737812;28;20058;-63
2021/03/16 19:13:36;;;;;;;8.87;6.50;;;;;;;19.71;31.39;101272.41;31723115;28;20758;-62
2021/03/16 19:28:37;;;;;;;8.23;5.83;;;;;;;20.10;30.80;101271.00;31719815;27;20285;-61
2021/03/16 19:43:40;;;;;;;9.57;7.10;;;;;;;20.46;31.09;101280.31;31729811;27;20750;-63
2021/03/16 19:58:41;;;;;;;10.50;6.97;;;;;;;20.68;31.24;101289.97;31706733;27;20685;-63
2021/03/16 20:13:42;;;;;;;11.07;7.32;;;;;;;20.86;30.99;101294.66;31716590;28;20039;-64
2021/03/16 20:28:43;;;;;;;10.20;7.82;;;;;;;20.83;29.44;101308.16;31738986;28;20036;-64
2021/03/16 20:43:44;;;;;;;19.35;14.35;;;;;;;20.84;30.41;101309.81;31725560;28;20084;-60
2021/03/16 20:58:45;;;;;;;10.93;8.33;;;;;;;20.99;30.53;101318.25;31707923;27;20054;-62
2021/03/16 21:13:46;;;;;;;11.77;9.17;;;;;;;21.06;29.81;101337.91;31705107;27;20304;-62
2021/03/16 21:28:47;;;;;;;10.73;8.83;;;;;;;21.10;29.62;101328.75;31677609;28;20308;-62
2021/03/16 21:43:48;;;;;;;12.73;9.13;;;;;;;21.09;29.70;101325.25;31703460;28;20282;-62
2021/03/16 21:58:49;;;;;;;12.48;9.35;;;;;;;20.99;30.64;101329.66;31661501;28;20374;-63
2021/03/16 22:13:50;;;;;;;8.02;5.07;;;;;;;16.70;27.35;101342.41;31714184;28;20035;-63
2021/03/16 22:28:51;;;;;;;10.15;5.70;;;;;;;14.77;30.46;101349.91;31694772;27;20040;-63
2021/03/16 22:43:52;;;;;;;7.43;4.82;;;;;;;15.66;34.74;101349.84;31744444;27;20031;-63
2021/03/16 22:58:53;;;;;;;7.35;4.57;;;;;;;17.05;34.56;101347.97;31741767;28;20052;-64
2021/03/16 23:13:54;;;;;;;7.72;4.57;;;;;;;17.79;34.07;101330.56;31735247;28;20036;-64
2021/03/16 23:28:56;;;;;;;10.30;4.63;;;;;;;18.20;34.08;101333.84;31747462;28;20062;-63
2021/03/16 23:43:57;;;;;;;6.82;4.55;;;;;;;18.41;34.04;101332.28;31670044;28;20534;-63
2021/03/16 23:58:58;;;;;;;6.68;4.00;;;;;;;18.54;34.09;101321.69;31731699;28;20601;-64
